ADDS TAF Data INFO
IDs: Format: Raw Decoded Include METARs

Data at: 1817 UTC 30 May 2016

Region: TOP
KATL 301731Z 3018/3124 35010KT P6SM SCT060
  FM310100 34006KT P6SM FEW150
  FM310800 03005KT P6SM FEW250
  FM311400 09006KT P6SM FEW040
  FM311600 10004KT P6SM SCT050
  FM311800 32006KT P6SM SCT060


KBOS 301805Z 3018/3124 16005KT P6SM VCSH SCT005 BKN020
  FM302000 21007KT P6SM SCT020 BKN050
  FM311200 25006KT P6SM SCT250


KBWI 301729Z 3018/3124 16006KT P6SM SCT035 OVC060
  FM310500 VRB03KT 3SM BR BKN130 BKN200
  FM311300 35004KT P6SM BKN200 BKN250
  FM311900 05004KT P6SM SCT250


KCLE 301733Z 3018/3124 31008KT P6SM SCT050
  FM302300 33004KT P6SM SCT250
  FM311500 01006KT P6SM FEW050 SCT250


KCLT 301739Z 3018/3118 01008KT P6SM SCT035 BKN060
  FM310100 05006KT P6SM BKN250
  FM310800 02003KT P6SM SCT008 BKN020
  FM311000 02004KT P6SM BKN008 OVC020
  FM311400 04006KT P6SM SCT015 BKN035


KCVG 301730Z 3018/3124 33007KT P6SM FEW060
  FM310000 00000KT P6SM SKC
  FM311500 04004KT P6SM FEW060


KDCA 301729Z 3018/3118 15004KT P6SM SCT025 OVC150
  FM310500 VRB03KT 3SM BR BKN060 BKN150
  FM311300 35004KT P6SM SCT140 BKN200


KDEN 301728Z 3018/3124 13007KT P6SM FEW090 FEW220
  FM302100 31010KT P6SM SCT080 BKN140
  TEMPO 3021/3024 VRB20G35KT -TSRA BKN070CB
  FM310200 25012KT P6SM FEW090 SCT140
  FM310600 36012KT P6SM FEW140 SCT220
  FM311000 35008KT P6SM SCT008 OVC014
  FM311600 15007KT P6SM SCT012 BKN022
  FM312000 08008KT P6SM VCSH SCT015 BKN035


KDFW 301720Z 3018/3124 15008KT P6SM SCT030 BKN090
  TEMPO 3111/3114 BKN025
  FM311600 16010KT P6SM SCT040
  FM312000 16011KT P6SM VCTS BKN040CB


KDTW 301725Z 3018/3124 26010KT P6SM BKN050
  FM302000 28010KT P6SM SCT060
  FM310100 32005KT P6SM SKC
  FM310700 03005KT P6SM SCT250
  FM311400 07005KT P6SM BKN250
  FM311900 12007KT P6SM FEW050 OVC200


KEWR 301740Z 3018/3124 20009KT P6SM VCSH SCT020 SCT040 OVC250
  TEMPO 3018/3019 BKN020
  FM302100 17008KT P6SM BKN040
  FM302200 23005KT P6SM BKN040
  FM310600 VRB03KT P6SM BKN040
  FM311100 33006KT P6SM SCT040 SCT090 BKN250
  FM311900 16007KT P6SM FEW040 FEW090 SCT250


KFLL 301720Z 3018/3118 08010KT P6SM SCT030 SCT060
  FM302300 VRB03KT P6SM FEW030 SCT250
  FM311400 08005KT P6SM VCSH SCT030 SCT060


KIAD 301729Z 3018/3124 15004KT P6SM SCT035 BKN070
  FM310500 VRB03KT 3SM BR SCT110 BKN130
  FM311300 35004KT P6SM BKN200 BKN250
  FM312200 06005KT P6SM SCT250


KIAH 301720Z 3018/3124 18007KT P6SM VCSH SCT025 BKN180
  TEMPO 3018/3019 5SM -SHRA BKN025
  FM310100 16005KT P6SM SCT250
  FM310600 VRB03KT P6SM FEW015 SCT250
  FM310900 00000KT P6SM BKN015
  FM311500 16005KT P6SM SCT030
  FM312000 14009KT P6SM VCSH BKN050


KJFK 301740Z 3018/3124 20013KT P6SM FEW020 BKN050 OVC090
  TEMPO 3018/3019 BKN020
  FM302100 19015KT P6SM BKN050
  FM310100 22009KT P6SM VCSH BKN050
  FM310400 22004KT P6SM FEW005 BKN090
  TEMPO 3105/3106 BKN005
  FM310600 VRB04KT 2SM BR BKN005 BKN040
  FM311100 33005KT P6SM SCT090 BKN250
  FM311600 24005KT P6SM FEW050 SCT250
  FM311700 18008KT P6SM FEW050 SCT250


KLAS 301720Z 3018/3118 VRB04KT P6SM FEW150
  FM301900 07006KT P6SM SCT150
  FM310300 20007KT P6SM FEW150
  FM311400 02005KT P6SM FEW150


KLAX 301740Z 3018/3124 25006KT P6SM SCT018 OVC028
  FM302000 26006KT P6SM BKN025
  FM302200 26012KT P6SM SCT025
  FM310500 26007KT P6SM BKN010
  FM310800 VRB03KT P6SM OVC010
  FM311730 27007KT P6SM SCT015
  FM312000 26012KT P6SM SKC


KLGA 301740Z 3018/3118 18008KT P6SM SCT020 BKN090 OVC250
  TEMPO 3018/3019 BKN020
  FM302100 18012KT P6SM BKN050
  FM310000 22006KT P6SM VCSH BKN050
  FM310600 VRB04KT P6SM SCT005 BKN050
  TEMPO 3108/3111 4SM BR BKN005
  FM311100 35005KT P6SM SCT090 BKN250


KMCO 301735Z 3018/3118 VRB05KT P6SM VCSH SCT040 SCT090
  FM302000 09008KT P6SM VCTS SCT050CB BKN120
  TEMPO 3021/3024 3SM TSRA BKN020CB OVC040
  FM310100 VRB05KT P6SM FEW030 BKN120
  FM311400 26005KT P6SM SCT035


KMDW 301730Z 3018/3118 27011G15KT P6SM FEW050 SCT250
  FM302000 06010KT P6SM SKC
  FM310500 12005KT P6SM SCT120
  FM311500 15008KT P6SM SCT050


KMEM 301738Z 3018/3118 06006KT P6SM SCT050 SCT250
  FM302000 02005KT P6SM VCTS BKN050CB
  FM311300 10005KT P6SM BKN120


KMIA 301720Z 3018/3118 VRB05KT P6SM VCTS SCT025 BKN035CB
  FM301900 09008KT P6SM VCSH SCT030 SCT050
  FM302300 VRB02KT P6SM FEW030 SCT250
  FM311400 09005KT P6SM VCSH SCT030 SCT060


KMSP 301735Z 3018/3124 20007KT P6SM SCT150 BKN250
  FM301900 17008KT P6SM BKN110
  FM310500 13008KT P6SM VCSH OVC070
  TEMPO 3106/3108 4SM TSRA OVC045CB
  FM310800 13008KT P6SM -SHRA VCTS SCT025CB OVC045
  FM311500 16010KT P6SM VCSH OVC040
  FM311800 20012KT P6SM VCSH BKN050
  PROB30 3118/3122 4SM TSRA BKN040CB


KORD 301730Z 3018/3124 28009G15KT P6SM FEW040 SCT250
  FM302100 07010KT P6SM SKC
  FM310500 12005KT P6SM SCT120
  FM311500 15008KT P6SM SCT050


KPDX 301728Z 3018/3118 VRB05KT P6SM SCT250
  FM302200 33011KT P6SM SCT250
  FM310500 VRB04KT P6SM SKC


KPHL 301722Z 3018/3124 23005KT P6SM SCT025 BKN100
  TEMPO 3020/3022 BKN025
  FM302200 24005KT P6SM SCT030 BKN200
  TEMPO 3022/3024 -SHRA BKN030
  FM310100 22004KT 6SM BR SCT100
  FM310500 24003KT 3SM BR VV008
  FM311200 34005KT P6SM FEW040
  FM311500 02005KT P6SM FEW040


KPHX 301721Z 3018/3118 VRB05KT P6SM SKC
  FM302100 27008KT P6SM SKC
  FM310900 09004KT P6SM SKC


KPIT 301738Z 3018/3124 30006KT P6SM SCT150
  FM310900 00000KT 5SM BR FEW250
  FM311200 36006KT P6SM FEW250


KSAN 301720Z 3018/3124 VRB05KT P6SM BKN015 BKN027
  FM302000 27010KT P6SM SCT027 BKN035
  FM310200 VRB05KT P6SM OVC015
  FM312000 27010KT P6SM SCT020


KSEA 301726Z 3018/3124 36009KT P6SM SCT250
  FM310500 03009KT P6SM SKC
  FM311900 33006KT P6SM SKC


KSFO 301733Z 3018/3124 04004KT P6SM FEW009
  FM302200 30014KT P6SM SKC
  FM310400 30008KT P6SM SCT015
  FM311100 27004KT P6SM OVC012
  FM311700 VRB05KT P6SM FEW010
  FM312200 31013KT P6SM SKC


KSLC 301738Z 3018/3124 27003KT P6SM FEW100
  FM301900 32008KT P6SM FEW100
  FM310400 17007KT P6SM SKC


KSTL 301740Z 3018/3124 15005KT P6SM SCT050 BKN250
  FM310100 VRB04KT P6SM SCT100 BKN250
  FM311500 13006KT P6SM SCT040 BKN100
  FM311900 14008KT P6SM VCTS SCT050CB BKN100


KTPA 301738Z 3018/3118 26008KT P6SM VCTS SCT045CB BKN080
  TEMPO 3018/3020 2SM TSRA BKN025CB
  FM302200 29007KT P6SM SCT040 BKN100
  FM310100 VRB03KT P6SM FEW030 SCT120
  FM311500 25007KT P6SM FEW040 SCT250